Dilidjan, Armenia

5:52 PM AMT on September 30, 2014 (GMT +0400)
Zvartnots | Change Station
CLOSE
Current Station
Airport
Location: Zvartnots,
Elevation: 2838 ft
Nearby Weather Stations

Elev 2838 ft 40.15 °N, 44.40 °E | Updated 22 minutes ago

Mostly Cloudy
Mostly Cloudy
66 °F
Feels Like 66 °F
N
9
Wind Variable Wind from NE

Today
High -- | Low -- °F
--% Chance of Precip.
Yesterday
High -- | Low -- °F
Precip. -- in
6:55 AM 6:44 PM
Waxing Crescent, 37% visible
Pressure 30.06 in
Visibility 6.2 miles
Clouds Scattered Clouds 4000 ft
Mostly Cloudy 10000 ft
Dew Point 43 °F
Humidity 43%
Rainfall 0.00 in
Snow Depth Not available.
UV 0 out of 12
Pollen Not available.
Air Quality Not available.
Flu Activity Not available.
METAR UDYZ 301330Z 04004MPS 9999 SCT040CB BKN100 19/06 Q1018 R09/010070 NOSIG

More Conditions Fewer Conditions

Pressure 30.06 in
Visibility 6.2 miles
Clouds Scattered Clouds 4000 ft
Mostly Cloudy 10000 ft
Dew Point 43 °F
Humidity 43%
Rainfall 0.00 in
Snow Depth Not available.
UV 0 out of 12
Pollen Not available.
Air Quality Not available.
Flu Activity Not available.
METAR UDYZ 301330Z 04004MPS 9999 SCT040CB BKN100 19/06 Q1018 R09/010070 NOSIG

More Conditions Fewer Conditions

10-Day Weather Forecast

Almanac

Astronomy

Sep. 30, 2014 Rise Set
Actual Time 6:55 AM AMT 6:44 PM AMT
Civil Twilight 6:28 AM AMT 7:12 PM AMT
Nautical Twilight 5:56 AM AMT 7:43 PM AMT
Astronomical Twilight 5:24 AM AMT 8:15 PM AMT
Moon 12:44 PM AMT 10:51 PM AMT
Length of Visible Light 12h 43m
Length of Day
11h 49m
Tomorrow will be 2m 39s shorter.
Waxing Crescent, 37% of the Moon is Illuminated
Today
Waxing Crescent
Oct 1
First Quarter
Oct 8
Full
Oct 15
Last Quarter
Oct 23
New

Yesterday's Extremes

Country Highs Country Lows

Community

WunderPhotos

Upload Photos

1,757,636 photos uploaded!

Nearby

Snow Depth

Not available.

Earthquake Activity

City Distance Mag. Time & Date
No recent earthquake activity has been reported nearby.
Minimum magnitude displayed is 2.5.

Coastal Water Temperatures

Place Temperature
No Stations Reporting

Nearby Weather Stations